»·PEaware :: N642SP KPOC-KIFP

N642SP :: KPOC-KIFP

FLIGHT INFORMATION

Flight Status: Arrived
Operator: Privately registered:
United States
More flights under this callsign
Pilot: Wes T. (5776)
Aircraft: CESSNA 172 SKYHAWK
(C172)
More flights by this aircraft type
Origin: KPOC Brackett
United States
Destination: KIFP Laughlin/Bullhead Intl
United States
More flights between these airports :: More routes between these airports
Route: +PDZ V442 HEC V12 EED
File this flight plan on PilotEdge
Remarks:
Altitude:
(Current/Filed)
9,000ft
Speed:
(Current/Filed)
115kts
Departed: 15-May-19 10:39 AM
Arrived: 15-May-19 01:06 PM
Distance/Time
Traveled:
172nm/2:27
Distance/Time
To Go:
Arrived

Flight Plot

Page will automatically refresh every two minutes.


Map Options




Map Legend


Flown Route
Filed Route
Departure Airport
Arrival Airport
Navaid (VOR, NDB)
Fix

Horizontal Profiles

Position Reports

Time Latitude Longitude Heading Altitude Ground
Speed
15-May-19 10:08 34.090331 -117.783565 350 1014ft 0kts
15-May-19 10:09 34.090335 -117.783566 350 1014ft 0kts
15-May-19 10:10 34.090338 -117.783567 350 1014ft 0kts
15-May-19 10:11 34.090342 -117.783567 350 1014ft 0kts
15-May-19 10:12 34.090346 -117.783568 350 1014ft 0kts
15-May-19 10:13 34.090349 -117.783569 350 1014ft 0kts
15-May-19 10:14 34.090353 -117.783570 350 1014ft 0kts
15-May-19 10:15 34.090358 -117.783571 350 1014ft 0kts
15-May-19 10:16 34.090362 -117.783572 350 1014ft 0kts
15-May-19 10:17 34.090366 -117.783572 350 1014ft 0kts
15-May-19 10:18 34.090369 -117.783573 350 1014ft 0kts
15-May-19 10:19 34.090373 -117.783574 350 1014ft 0kts
15-May-19 10:20 34.090377 -117.783575 350 1014ft 0kts
15-May-19 10:21 34.090381 -117.783575 350 1014ft 0kts
15-May-19 10:22 34.090384 -117.783576 350 1014ft 0kts
15-May-19 10:23 34.090388 -117.783577 350 1014ft 0kts
15-May-19 10:24 34.090392 -117.783578 350 1014ft 0kts
15-May-19 10:25 34.090396 -117.783579 350 1014ft 0kts
15-May-19 10:26 34.090399 -117.783579 350 1014ft 0kts
15-May-19 10:27 34.090403 -117.783580 350 1014ft 0kts
15-May-19 10:28 34.090407 -117.783581 350 1014ft 0kts
15-May-19 10:28 34.090410 -117.783582 350 1014ft 0kts
15-May-19 10:30 34.090415 -117.783583 350 1014ft 0kts
15-May-19 10:31 34.090419 -117.783583 350 1014ft 0kts
15-May-19 10:31 34.090423 -117.783584 350 1014ft 0kts
15-May-19 10:33 34.090409 -117.779770 93 1014ft 23kts
15-May-19 10:33 34.090022 -117.775176 323 1014ft 0kts
15-May-19 10:34 34.090026 -117.775180 323 1014ft 0kts
15-May-19 10:35 34.090046 -117.775195 331 1014ft 3kts
15-May-19 10:36 34.090545 -117.774879 1 1014ft 0kts
15-May-19 10:37 34.090987 -117.775024 273 1014ft 0kts
15-May-19 10:38 34.091650 -117.794912 274 1574ft 82kts
15-May-19 10:39 34.080625 -117.822876 178 2183ft 115kts
15-May-19 10:40 34.054413 -117.801460 141 3000ft 114kts
15-May-19 10:41 34.035649 -117.770312 119 3807ft 120kts
15-May-19 10:42 34.018511 -117.734225 119 4622ft 124kts
15-May-19 10:43 34.001048 -117.698369 118 5420ft 126kts
15-May-19 10:44 33.983741 -117.663095 117 6207ft 115kts
15-May-19 10:45 33.967909 -117.630745 117 6991ft 115kts
15-May-19 10:46 33.950726 -117.595834 117 7016ft 118kts
15-May-19 10:47 33.933794 -117.561455 117 7048ft 126kts
15-May-19 10:48 33.930886 -117.523042 40 7064ft 120kts
15-May-19 10:49 33.958852 -117.505720 28 7563ft 106kts
15-May-19 10:50 33.984744 -117.490176 29 8063ft 103kts
15-May-19 10:51 34.009984 -117.475056 29 8564ft 99kts
15-May-19 10:52 34.035449 -117.459699 28 8977ft 112kts
15-May-19 10:53 34.063175 -117.443033 28 8998ft 109kts
15-May-19 10:54 34.091049 -117.426189 28 8997ft 115kts
15-May-19 10:55 34.119828 -117.408993 29 9000ft 115kts
15-May-19 10:56 34.147807 -117.392214 29 9005ft 110kts
15-May-19 10:57 34.175339 -117.375582 30 9000ft 113kts
15-May-19 10:58 34.204037 -117.358243 28 9008ft 115kts
15-May-19 10:59 34.232153 -117.341244 28 9008ft 113kts
15-May-19 11:00 34.260646 -117.324105 29 9015ft 114kts
15-May-19 11:01 34.289173 -117.306893 28 9002ft 115kts
15-May-19 11:02 34.318460 -117.289106 29 8978ft 120kts
15-May-19 11:03 34.347956 -117.271237 28 9011ft 121kts
15-May-19 11:04 34.378651 -117.252494 29 9015ft 125kts
15-May-19 11:05 34.409416 -117.234096 28 9003ft 117kts
15-May-19 11:06 34.437998 -117.216759 29 9024ft 113kts
15-May-19 11:07 34.465971 -117.199787 28 9027ft 113kts
15-May-19 11:08 34.494151 -117.182558 28 9022ft 113kts
15-May-19 11:09 34.521557 -117.165757 29 9024ft 107kts
15-May-19 11:10 34.548733 -117.148350 47 9005ft 114kts
15-May-19 11:11 34.561494 -117.113978 65 9145ft 112kts
15-May-19 11:12 34.573575 -117.080790 66 9653ft 105kts
15-May-19 11:13 34.585581 -117.048234 66 10150ft 104kts
15-May-19 11:14 34.597056 -117.016522 67 10643ft 101kts
15-May-19 11:15 34.608387 -116.985338 67 11013ft 103kts
15-May-19 11:16 34.619844 -116.953740 67 11016ft 102kts
15-May-19 11:17 34.631413 -116.921922 67 11018ft 103kts
15-May-19 11:18 34.643021 -116.889955 67 11013ft 103kts
15-May-19 11:19 34.654632 -116.857942 67 11009ft 103kts
15-May-19 11:20 34.666240 -116.825923 67 11006ft 104kts
15-May-19 11:21 34.677879 -116.793777 67 11003ft 104kts
15-May-19 11:22 34.689536 -116.761561 67 11002ft 104kts
15-May-19 11:23 34.701150 -116.729395 67 11000ft 103kts
15-May-19 11:24 34.712760 -116.697233 67 10999ft 104kts
15-May-19 11:25 34.724476 -116.665046 69 11011ft 104kts
15-May-19 11:26 34.736407 -116.632310 67 10940ft 112kts
15-May-19 11:27 34.748288 -116.599051 68 10854ft 113kts
15-May-19 11:28 34.759647 -116.567148 67 11013ft 104kts
15-May-19 11:29 34.771307 -116.534770 68 11003ft 104kts
15-May-19 11:30 34.783051 -116.501818 68 11006ft 107kts
15-May-19 11:31 34.795015 -116.468448 68 11003ft 107kts
15-May-19 11:32 34.796863 -116.432749 90 11009ft 106kts
15-May-19 11:33 34.796502 -116.396566 89 11010ft 107kts
15-May-19 11:34 34.796212 -116.360168 90 11014ft 107kts
15-May-19 11:35 34.795904 -116.324265 89 11014ft 104kts
15-May-19 11:36 34.795586 -116.288986 90 11017ft 103kts
15-May-19 11:37 34.795274 -116.253941 90 11019ft 103kts
15-May-19 11:38 34.794952 -116.218826 89 11022ft 104kts
15-May-19 11:39 34.794616 -116.183640 90 11021ft 104kts
15-May-19 11:40 34.794268 -116.148463 90 11007ft 104kts
15-May-19 11:41 34.793908 -116.113111 90 11006ft 103kts
15-May-19 11:42 34.793535 -116.078075 90 11007ft 103kts
15-May-19 11:43 34.793162 -116.043063 90 11007ft 103kts
15-May-19 11:44 34.792784 -116.007759 90 11007ft 104kts
15-May-19 11:45 34.792375 -115.972322 91 11001ft 104kts
15-May-19 11:46 34.791965 -115.936821 91 11000ft 105kts
15-May-19 11:47 34.791540 -115.901288 91 10997ft 105kts
15-May-19 11:48 34.791112 -115.865901 91 10997ft 104kts
15-May-19 11:49 34.790668 -115.830316 91 10996ft 105kts
15-May-19 11:50 34.790211 -115.794900 91 10994ft 105kts
15-May-19 11:51 34.789745 -115.759378 91 10989ft 104kts
15-May-19 11:52 34.789274 -115.723854 91 10989ft 105kts
15-May-19 11:53 34.788774 -115.688106 91 10986ft 106kts
15-May-19 11:54 34.788256 -115.651331 91 10986ft 112kts
15-May-19 11:55 34.787727 -115.613750 91 10978ft 107kts
15-May-19 11:56 34.787207 -115.577650 92 10976ft 105kts
15-May-19 11:57 34.786674 -115.542066 92 10974ft 105kts
15-May-19 11:58 34.786137 -115.506419 92 10972ft 105kts
15-May-19 11:59 34.785588 -115.471050 92 10968ft 104kts
15-May-19 12:00 34.785033 -115.435728 92 10966ft 104kts
15-May-19 12:01 34.784452 -115.399717 92 10963ft 105kts
15-May-19 12:02 34.783855 -115.362933 92 10962ft 114kts
15-May-19 12:03 34.783192 -115.323156 92 10956ft 120kts
15-May-19 12:04 34.782523 -115.283150 92 10951ft 114kts
15-May-19 12:05 34.781889 -115.245504 92 10948ft 107kts
15-May-19 12:06 34.781248 -115.209448 92 10946ft 106kts
15-May-19 12:07 34.780604 -115.173472 93 10941ft 105kts
15-May-19 12:08 34.779947 -115.137530 93 10942ft 108kts
15-May-19 12:09 34.779206 -115.098417 92 10938ft 125kts
15-May-19 12:10 34.778417 -115.055046 93 10944ft 129kts
15-May-19 12:11 34.777628 -115.013339 93 10932ft 116kts
15-May-19 12:12 34.776892 -114.975220 93 10933ft 109kts
15-May-19 12:13 34.776149 -114.938404 93 10934ft 108kts
15-May-19 12:14 34.775404 -114.901631 93 10932ft 108kts
15-May-19 12:15 34.774653 -114.864860 93 10932ft 108kts
15-May-19 12:16 34.773839 -114.826028 93 10932ft 122kts
15-May-19 12:17 34.773002 -114.785706 93 10931ft 112kts
15-May-19 12:18 34.772201 -114.748238 94 10927ft 109kts
15-May-19 12:19 34.771402 -114.710808 94 10927ft 111kts
15-May-19 12:20 34.770554 -114.672805 94 10927ft 112kts
15-May-19 12:21 34.769707 -114.634876 94 10926ft 112kts
15-May-19 12:22 34.768847 -114.596824 94 10926ft 112kts
15-May-19 12:23 34.767976 -114.558801 94 10927ft 112kts
15-May-19 12:24 34.767031 -114.518611 94 10929ft 127kts
15-May-19 12:25 34.767546 -114.481390 65 10925ft 98kts
15-May-19 12:26 34.796198 -114.481914 351 10828ft 125kts
15-May-19 12:27 34.832963 -114.491725 351 10355ft 137kts
15-May-19 12:28 34.871154 -114.501816 351 9854ft 144kts
15-May-19 12:29 34.909164 -114.511879 351 9332ft 136kts
15-May-19 12:30 34.946113 -114.521640 351 8832ft 136kts
15-May-19 12:31 34.982941 -114.531393 351 8331ft 134kts
15-May-19 12:32 35.018132 -114.540733 351 7945ft 120kts
15-May-19 12:33 35.048868 -114.548888 351 7928ft 108kts
15-May-19 12:34 35.080358 -114.557232 351 7933ft 120kts
15-May-19 12:35 35.113595 -114.566060 350 7925ft 122kts
15-May-19 12:36 35.146815 -114.574892 350 7926ft 122kts
15-May-19 12:37 35.179827 -114.583683 351 7926ft 120kts
15-May-19 12:38 35.212524 -114.592384 350 7929ft 121kts
15-May-19 12:39 35.245613 -114.601206 350 7930ft 122kts
15-May-19 12:40 35.278793 -114.610060 350 7927ft 122kts
15-May-19 12:41 35.311947 -114.618909 350 7930ft 121kts
15-May-19 12:42 35.344575 -114.627631 350 7931ft 117kts
15-May-19 12:44 35.376193 -114.636083 350 7934ft 116kts
15-May-19 12:45 35.408055 -114.644608 350 7938ft 118kts
15-May-19 12:46 35.440204 -114.653222 350 7941ft 118kts
15-May-19 12:47 35.471768 -114.661694 350 7935ft 104kts
15-May-19 12:48 35.497813 -114.673217 339 7644ft 103kts
15-May-19 12:49 35.524245 -114.686480 340 7127ft 101kts
15-May-19 12:50 35.521696 -114.711487 184 6632ft 101kts
15-May-19 12:51 35.501965 -114.691952 124 6558ft 93kts
15-May-19 12:52 35.483778 -114.667372 148 6551ft 101kts
15-May-19 12:53 35.457535 -114.653560 155 6541ft 103kts
15-May-19 12:54 35.431265 -114.640262 155 6539ft 101kts
15-May-19 12:55 35.402831 -114.625946 156 6012ft 111kts
15-May-19 12:56 35.375297 -114.612080 156 5318ft 104kts
15-May-19 12:57 35.348634 -114.598678 156 4616ft 103kts
15-May-19 12:58 35.322756 -114.585661 156 3913ft 98kts
15-May-19 12:59 35.300545 -114.574519 157 3427ft 89kts
15-May-19 13:00 35.277834 -114.568656 175 2985ft 85kts
15-May-19 13:01 35.254836 -114.566884 175 2540ft 95kts
15-May-19 13:02 35.227526 -114.564835 176 2002ft 96kts
15-May-19 13:03 35.204228 -114.563156 176 1555ft 76kts
15-May-19 13:04 35.184525 -114.561652 176 1022ft 63kts
15-May-19 13:05 35.166267 -114.560214 176 708ft 59kts
15-May-19 13:06 35.161373 -114.559194 49 698ft 0kts
15-May-19 13:07 35.162854 -114.557200 357 698ft 13kts
15-May-19 13:08 35.163086 -114.556869 306 698ft 0kts

Navigation Log

Ident Type
Flight plan parsing failed, navigation log unavailable